LiveATC.Net - Listen to live air traffic control over the Internet!


ICAO: KLYH  IATA: LYH   Airport: Lynchburg Regional Airport/Preston Glenn Field
City: Lynchburg   State/Province: Virginia
Country: United States   Continent: North America
KLYH METAR Weather: KLYH 251154Z 01004KT 10SM FEW120 17/09 A2991 RMK AO2 SLP122 T01670094 10189 20156 51013
KLYH Flight Activity (FlightAware)
KLYH Airport Info   (iFlightPlanner)
KLYH VFR Sectional Chart   (iFlightPlanner) 
KLYH IFR Low Chart   (iFlightPlanner) 

KLYH Ground/Tower
Feed Status: UP   Listeners: 0
Listen in your browser - HTML5 player (in browser, HTML5)
Click here to listen with your own player (launches your MP3 player)
KLYH Ground/Tower Audio Archives
FacilityFrequency
Lynchburg Ground121.900
Lynchburg Tower127.650

NOTICE

Unauthorized use prohibited. See LiveATC.net Terms of Service


Find LiveATC Audio Streams


Airport/ARTCC Code

Frequency Search
(e.g., 124.400, 128.75)
Site-wide search
 


Browse LiveATC Feeds
Top 50 LiveATC Feeds
LiveATC Feed Map
Bad Weather Areas

LiveATC FAQ
Offer LiveATC feed
Contact LiveATC.net
Press Inquiries

LiveATC on iPhone
LiveATC on Android

Windows Phone
Windows 8/10

LiveATC Mobile
(Mobile browser)

ATC Audio Archives
Interesting Recordings

LiveATC Forums


Home Page
About LiveATC.net
Make a Donation
Terms of Use
Privacy Policy

Canadian Air Freqs

AIRMETs/SIGMETs

FAA Airport Status
Nat'l Airspace Status
Arrival Demand Charts


Server Software By:
Icecast.org
Liquidsoap